Time;durP1;ratioP1;P1;durP2;ratioP2;P2;SDS_P1;SDS_P2;PMS_P1;PMS_P2;Temp;Humidity;BMP_temperature;BMP_pressure;BME280_temperature;BME280_humidity;BME280_pressure;Samples;Min_cycle;Max_cycle;Signal;HPM_P1;HPM_P2
2022/05/13 00:00:46;;;;;;;6.55;3.00;;;;;;;8.92;84.07;101615.34;2079004;28;43658;-65
2022/05/13 00:01:47;;;;;;;6.97;3.30;;;;;;;8.88;84.41;101609.13;2078930;28;31358;-66
2022/05/13 00:02:49;;;;;;;7.38;2.80;;;;;;;8.86;84.09;101605.56;2078663;28;43029;-65
2022/05/13 00:03:51;;;;;;;8.88;3.00;;;;;;;8.83;83.88;101610.03;2078643;28;44052;-65
2022/05/13 00:04:53;;;;;;;7.22;3.30;;;;;;;8.85;84.92;101613.59;2078978;28;44592;-65
2022/05/13 00:05:55;;;;;;;9.40;3.90;;;;;;;8.78;84.24;101613.63;2078752;28;45243;-65
2022/05/13 00:06:56;;;;;;;9.95;3.10;;;;;;;8.77;84.52;101606.50;2078191;28;47169;-65
2022/05/13 00:08:00;;;;;;;8.90;3.60;;;;;;;8.77;84.14;101611.84;2079868;28;20038;-65
2022/05/13 00:09:03;;;;;;;6.10;3.33;;;;;;;8.76;84.30;101610.06;2078998;28;43710;-64
2022/05/13 00:10:05;;;;;;;5.75;3.25;;;;;;;8.75;84.18;101602.94;2078377;28;46544;-65
2022/05/13 00:11:09;;;;;;;7.15;2.50;;;;;;;8.74;84.35;101608.28;2079095;28;44707;-65
2022/05/13 00:12:11;;;;;;;7.93;3.08;;;;;;;8.72;83.98;101602.06;2078777;28;45128;-65
2022/05/13 00:13:13;;;;;;;9.63;3.17;;;;;;;8.70;84.99;101599.41;2079247;28;45978;-65
2022/05/13 00:14:15;;;;;;;6.68;2.90;;;;;;;8.67;85.15;101594.09;2069755;28;45992;-65
2022/05/13 00:15:22;;;;;;;6.25;2.90;;;;;;;8.68;84.78;101594.97;2070441;28;46750;-65
2022/05/13 00:16:23;;;;;;;5.57;2.97;;;;;;;8.66;84.73;101597.66;2078266;28;44184;-65
2022/05/13 00:17:25;;;;;;;6.03;3.30;;;;;;;8.68;85.37;101590.50;2078052;28;46020;-65
2022/05/13 00:18:27;;;;;;;7.57;3.30;;;;;;;8.66;84.35;101596.75;2079878;28;20120;-65
2022/05/13 00:19:30;;;;;;;7.20;3.63;;;;;;;8.63;85.09;101591.44;2078493;28;45485;-65
2022/05/13 00:20:32;;;;;;;7.18;3.30;;;;;;;8.59;84.53;101590.56;2078638;28;45149;-64
2022/05/13 00:21:34;;;;;;;11.50;4.00;;;;;;;8.57;84.84;101590.56;2078572;28;42091;-65
2022/05/13 00:22:47;;;;;;;8.02;3.83;;;;;;;8.56;85.15;101585.22;2078839;28;44467;-65
2022/05/13 00:23:48;;;;;;;7.28;3.67;;;;;;;8.54;85.41;101587.03;2078523;28;38199;-65
2022/05/13 00:24:53;;;;;;;10.10;3.50;;;;;;;8.48;84.69;101581.72;2077895;28;43899;-65
2022/05/13 00:25:55;;;;;;;6.63;2.60;;;;;;;8.46;84.86;101583.50;2079025;28;45122;-65
2022/05/13 00:26:57;;;;;;;5.55;2.95;;;;;;;8.41;84.82;101587.03;2079565;28;30272;-66
2022/05/13 00:28:01;;;;;;;8.68;2.97;;;;;;;8.37;85.02;101590.59;2078978;28;45638;-65
2022/05/13 00:29:02;;;;;;;7.45;3.33;;;;;;;8.33;84.56;101588.84;2069784;28;45425;-66
2022/05/13 00:30:06;;;;;;;5.40;2.65;;;;;;;8.28;85.26;101584.44;2070259;28;45392;-64
2022/05/13 00:31:09;;;;;;;6.75;2.67;;;;;;;8.26;84.52;101584.44;2078989;28;30964;-65
2022/05/13 00:32:11;;;;;;;6.10;2.88;;;;;;;8.22;84.83;101580.00;2079423;28;45876;-65
2022/05/13 00:33:13;;;;;;;7.85;3.33;;;;;;;8.19;84.92;101591.56;2078582;28;43899;-66
2022/05/13 00:34:15;;;;;;;3.80;2.15;;;;;;;8.16;85.16;101583.53;2078936;28;46439;-65
2022/05/13 00:35:19;;;;;;;6.78;2.80;;;;;;;8.11;84.82;101582.69;2078798;28;44209;-65
2022/05/13 00:36:20;;;;;;;7.53;3.10;;;;;;;8.08;85.32;101588.03;2078762;28;42978;-66
2022/05/13 00:37:22;;;;;;;8.98;3.00;;;;;;;8.06;84.76;101584.47;2077282;28;44669;-65
2022/05/13 00:38:26;;;;;;;8.02;2.30;;;;;;;8.06;84.70;101583.56;2070603;28;45196;-65
2022/05/13 00:39:28;;;;;;;5.05;2.50;;;;;;;8.01;84.62;101576.47;2078437;28;46383;-65
2022/05/13 00:40:30;;;;;;;6.03;2.35;;;;;;;8.04;85.13;101575.59;2078837;28;44636;-65
2022/05/13 00:41:32;;;;;;;6.97;1.85;;;;;;;8.00;85.02;101574.72;2078848;28;44304;-66
2022/05/13 00:42:36;;;;;;;4.22;1.90;;;;;;;7.99;84.35;101574.72;2080164;28;20042;-65
2022/05/13 00:43:52;;;;;;;2.65;1.95;;;;;;;7.98;84.47;101571.13;2078507;28;44173;-65
2022/05/13 00:44:54;;;;;;;6.43;2.22;;;;;;;8.00;84.82;101566.72;2079107;28;46302;-65
2022/05/13 00:45:56;;;;;;;6.82;2.33;;;;;;;7.96;84.82;101572.94;2079229;28;20950;-66
2022/05/13 00:46:57;;;;;;;6.03;2.47;;;;;;;7.96;84.52;101567.59;2079828;28;44420;-66
2022/05/13 00:48:00;;;;;;;6.15;2.20;;;;;;;7.93;83.85;101567.63;2079573;28;46143;-66
2022/05/13 00:49:12;;;;;;;7.72;2.80;;;;;;;7.92;84.62;101565.84;2080720;28;20033;-65
2022/05/13 00:50:15;;;;;;;4.97;1.63;;;;;;;7.88;84.13;101566.75;2080032;28;46772;-65
2022/05/13 00:51:22;;;;;;;5.53;2.00;;;;;;;7.84;84.29;101565.84;2079745;28;42887;-65
2022/05/13 00:52:24;;;;;;;4.90;2.40;;;;;;;7.81;84.28;101572.97;2079455;28;46922;-64
2022/05/13 00:53:27;;;;;;;2.30;1.60;;;;;;;7.77;84.32;101563.19;2080412;28;44795;-66
2022/05/13 00:54:30;;;;;;;4.60;1.90;;;;;;;7.74;83.89;101568.53;2080595;28;21037;-65
2022/05/13 00:55:38;;;;;;;5.57;2.22;;;;;;;7.72;84.24;101563.22;2079864;28;45412;-65
2022/05/13 00:56:45;;;;;;;6.10;2.20;;;;;;;7.69;84.29;101568.53;2079181;28;45873;-65
2022/05/13 00:57:49;;;;;;;6.85;2.03;;;;;;;7.64;84.67;101568.56;2078450;28;42931;-65
2022/05/13 00:58:57;;;;;;;3.80;1.73;;;;;;;7.61;84.46;101568.53;2072261;28;43903;-65
2022/05/13 01:00:04;;;;;;;5.78;2.08;;;;;;;7.58;84.73;101567.66;2079609;28;42363;-66
2022/05/13 01:01:06;;;;;;;2.58;1.75;;;;;;;7.55;84.35;101565.88;2077734;28;44364;-65
2022/05/13 01:02:09;;;;;;;3.90;1.75;;;;;;;7.53;84.04;101569.44;2072167;28;44506;-65
2022/05/13 01:03:11;;;;;;;3.90;1.48;;;;;;;7.49;84.32;101560.56;2080349;28;45262;-66
2022/05/13 01:04:18;;;;;;;3.40;2.03;;;;;;;7.47;84.30;101566.78;2080401;28;20042;-66
2022/05/13 01:05:21;;;;;;;6.35;2.00;;;;;;;7.44;84.63;101563.19;2079918;28;44646;-65
2022/05/13 01:06:23;;;;;;;4.22;1.85;;;;;;;7.43;84.57;101568.56;2079647;28;42928;-65
2022/05/13 01:07:25;;;;;;;3.92;1.73;;;;;;;7.43;84.57;101565.91;2080123;28;20119;-65
2022/05/13 01:08:32;;;;;;;5.40;1.90;;;;;;;7.41;84.57;101563.22;2071465;28;43753;-65
2022/05/13 01:09:40;;;;;;;4.95;2.10;;;;;;;7.43;85.09;101563.22;2079595;28;46589;-65
2022/05/13 01:10:44;;;;;;;4.80;2.08;;;;;;;7.42;85.11;101569.44;2077536;28;44558;-65
2022/05/13 01:11:52;;;;;;;4.22;1.90;;;;;;;7.42;84.90;101564.09;2072608;28;45130;-65
2022/05/13 01:12:59;;;;;;;3.97;1.90;;;;;;;7.46;85.07;101552.56;2070871;28;46747;-66
2022/05/13 01:14:18;;;;;;;4.50;2.10;;;;;;;7.47;85.20;101557.00;2074062;28;20058;-64
2022/05/13 01:15:34;;;;;;;3.58;2.25;;;;;;;7.45;85.32;101551.69;2071079;28;44809;-65
2022/05/13 01:18:05;;;;;;;6.30;1.67;;;;;;;7.42;85.00;101559.66;2079458;28;45623;-65
2022/05/13 01:19:10;;;;;;;5.72;1.55;;;;;;;7.40;85.27;101564.09;2079605;28;45111;-66
2022/05/13 01:20:17;;;;;;;6.53;2.08;;;;;;;7.36;84.80;101553.47;2080332;28;45003;-65
2022/05/13 01:21:26;;;;;;;5.55;2.20;;;;;;;7.33;84.87;101557.00;2070596;28;44249;-66
2022/05/13 01:22:28;;;;;;;5.47;2.28;;;;;;;7.33;85.06;101557.00;2072209;28;46311;-66
2022/05/13 01:23:42;;;;;;;5.18;2.20;;;;;;;7.30;84.41;101558.78;2079420;28;45364;-66
2022/05/13 01:24:45;;;;;;;5.32;1.75;;;;;;;7.27;85.20;101554.34;2080227;28;36478;-65
2022/05/13 01:25:51;;;;;;;3.10;1.92;;;;;;;7.25;84.75;101558.78;2079459;28;44361;-65
2022/05/13 01:26:53;;;;;;;4.22;2.03;;;;;;;7.22;84.62;101553.44;2078568;28;44290;-66
2022/05/13 01:28:04;;;;;;;7.50;2.05;;;;;;;7.19;84.56;101554.31;2071734;28;44855;-66
2022/05/13 01:29:06;;;;;;;4.78;2.03;;;;;;;7.17;85.23;101553.44;2079800;28;44140;-66
2022/05/13 01:30:13;;;;;;;7.15;2.00;;;;;;;7.16;85.44;101550.75;2080863;28;20042;-65
2022/05/13 01:31:30;;;;;;;4.88;2.03;;;;;;;7.14;85.11;101552.53;2079161;28;43334;-66
2022/05/13 01:32:35;;;;;;;6.13;1.90;;;;;;;7.14;85.31;101553.44;2079550;28;45509;-65
2022/05/13 01:33:38;;;;;;;10.48;2.55;;;;;;;7.14;84.98;101552.53;2079500;28;45973;-66
2022/05/13 01:34:42;;;;;;;3.72;1.85;;;;;;;7.14;85.31;101561.44;2079876;28;43817;-64
2022/05/13 01:35:48;;;;;;;4.50;2.35;;;;;;;7.16;85.29;101561.41;2079900;28;36981;-64
2022/05/13 01:36:49;;;;;;;8.25;2.30;;;;;;;7.18;85.32;101565.00;2079411;28;44530;-64
2022/05/13 01:37:51;;;;;;;4.03;1.88;;;;;;;7.15;85.16;101549.88;2079039;28;43089;-63
2022/05/13 01:38:55;;;;;;;6.15;2.15;;;;;;;7.22;85.43;101562.31;2079989;28;44698;-65
2022/05/13 01:39:57;;;;;;;4.00;1.92;;;;;;;7.17;84.67;101556.09;2080182;28;42760;-64
2022/05/13 01:41:01;;;;;;;4.05;2.53;;;;;;;7.20;85.36;101556.09;2081054;28;20034;-65
2022/05/13 01:42:03;;;;;;;5.70;1.90;;;;;;;7.18;85.12;101549.91;2079624;28;44582;-64
2022/05/13 01:43:07;;;;;;;2.22;1.70;;;;;;;7.18;84.70;101552.56;2080744;28;20148;-63
2022/05/13 01:44:09;;;;;;;4.80;1.70;;;;;;;7.15;84.76;101549.88;2079408;28;46855;-64
2022/05/13 01:45:12;;;;;;;4.28;1.80;;;;;;;7.16;84.71;101554.34;2079867;28;43266;-63
2022/05/13 01:46:15;;;;;;;4.10;2.00;;;;;;;7.14;84.88;101548.13;2079596;28;20115;-64
2022/05/13 01:47:16;;;;;;;5.20;2.08;;;;;;;7.12;84.94;101552.53;2078632;28;46226;-64
2022/05/13 01:48:19;;;;;;;5.20;2.13;;;;;;;7.18;85.21;101552.56;2079203;28;44712;-64
2022/05/13 01:49:21;;;;;;;4.30;1.35;;;;;;;7.16;84.98;101556.09;2079292;28;42031;-64
2022/05/13 01:50:23;;;;;;;5.47;1.75;;;;;;;7.13;84.83;101549.00;2079276;28;44158;-63
2022/05/13 01:51:25;;;;;;;5.30;1.90;;;;;;;7.29;85.67;101546.34;2079840;28;45544;-64
2022/05/13 01:52:27;;;;;;;7.20;2.08;;;;;;;7.23;84.99;101542.81;2079752;28;45752;-65
2022/05/13 01:53:29;;;;;;;5.47;1.95;;;;;;;7.24;84.99;101541.91;2080134;28;45055;-64
2022/05/13 01:54:31;;;;;;;5.10;1.65;;;;;;;7.20;85.15;101541.91;2079542;28;45007;-65
2022/05/13 01:55:33;;;;;;;6.18;2.10;;;;;;;7.23;85.08;101544.56;2079501;28;44714;-64
2022/05/13 01:56:35;;;;;;;3.60;1.85;;;;;;;7.18;84.68;101544.56;2078799;28;45175;-64
2022/05/13 01:57:37;;;;;;;3.75;1.95;;;;;;;7.21;84.94;101538.34;2079389;28;45591;-64
2022/05/13 01:58:39;;;;;;;4.18;2.17;;;;;;;7.26;85.63;101540.13;2079027;28;45601;-65
2022/05/13 01:59:40;;;;;;;7.78;2.40;;;;;;;7.27;84.91;101535.69;2079291;28;46788;-64
2022/05/13 02:00:45;;;;;;;3.72;2.08;;;;;;;7.28;84.73;101528.59;2080530;28;20038;-64
2022/05/13 02:01:47;;;;;;;4.93;1.85;;;;;;;7.30;84.46;101533.00;2079739;28;43096;-63
2022/05/13 02:04:10;;;;;;;6.35;2.05;;;;;;;7.35;83.82;101541.03;2079838;28;43152;-64
2022/05/13 02:05:12;;;;;;;5.50;2.17;;;;;;;7.34;84.33;101526.81;2071569;28;20815;-64
2022/05/13 02:06:17;;;;;;;7.13;1.90;;;;;;;7.44;84.55;101535.69;2071999;28;20045;-64
2022/05/13 02:07:19;;;;;;;4.40;1.77;;;;;;;7.46;83.77;101523.25;2078901;28;45114;-64
2022/05/13 02:08:21;;;;;;;4.35;2.38;;;;;;;7.48;84.07;101521.47;2079473;28;44875;-64
2022/05/13 02:09:23;;;;;;;7.03;2.42;;;;;;;7.47;83.99;101517.03;2079334;28;43054;-64
2022/05/13 02:10:25;;;;;;;5.22;2.17;;;;;;;7.57;84.19;101516.16;2078665;28;45312;-64
2022/05/13 02:11:31;;;;;;;7.15;2.38;;;;;;;7.55;83.51;101517.03;2079277;28;28588;-64
2022/05/13 02:12:33;;;;;;;3.30;1.98;;;;;;;7.57;83.52;101513.50;2079152;28;44259;-64
2022/05/13 02:13:35;;;;;;;3.10;1.70;;;;;;;7.60;83.39;101516.13;2078355;28;42851;-63
2022/05/13 02:14:39;;;;;;;6.20;2.00;;;;;;;7.65;83.20;101516.13;2078841;28;44409;-64
2022/05/13 02:15:42;;;;;;;6.75;2.00;;;;;;;7.67;83.12;101519.69;2071772;28;20084;-64
2022/05/13 02:16:44;;;;;;;4.05;1.75;;;;;;;7.78;82.67;101517.00;2070946;28;46044;-64
2022/05/13 02:17:46;;;;;;;4.18;1.50;;;;;;;7.79;82.30;101521.44;2078289;28;45691;-64
2022/05/13 02:18:47;;;;;;;4.35;1.98;;;;;;;7.83;82.03;101515.22;2079721;28;43964;-64
2022/05/13 02:19:49;;;;;;;3.78;1.70;;;;;;;7.89;82.21;101514.28;2079595;28;44299;-65
2022/05/13 02:20:51;;;;;;;6.22;2.15;;;;;;;7.96;82.85;101516.94;2079954;28;45745;-64
2022/05/13 02:21:54;;;;;;;7.57;2.28;;;;;;;8.03;81.83;101516.03;2079508;28;43388;-64
2022/05/13 02:22:56;;;;;;;3.47;1.77;;;;;;;8.10;81.46;101510.69;2079684;28;43752;-64
2022/05/13 02:23:57;;;;;;;5.25;1.95;;;;;;;8.14;81.83;101509.78;2079257;28;44765;-65
2022/05/13 02:25:00;;;;;;;8.80;2.00;;;;;;;8.16;81.42;101507.97;2080399;28;44658;-65
2022/05/13 02:26:07;;;;;;;5.50;1.98;;;;;;;8.18;80.74;101511.53;2078942;28;36150;-65
2022/05/13 02:27:09;;;;;;;4.70;1.55;;;;;;;8.26;80.72;101509.72;2079583;28;28341;-64
2022/05/13 02:28:11;;;;;;;5.70;1.70;;;;;;;8.32;80.53;101506.16;2079547;28;42053;-64
2022/05/13 02:29:12;;;;;;;10.75;2.10;;;;;;;8.38;80.23;101511.44;2079648;28;44293;-65
2022/05/13 02:30:15;;;;;;;3.97;1.50;;;;;;;8.41;79.66;101508.75;2079491;28;45797;-64
2022/05/13 02:31:17;;;;;;;7.00;1.95;;;;;;;8.50;79.94;101506.06;2080067;28;38547;-65
2022/05/13 02:32:18;;;;;;;6.03;1.60;;;;;;;8.52;79.63;101504.28;2078940;28;44240;-64
2022/05/13 02:33:20;;;;;;;4.70;1.73;;;;;;;8.54;79.76;101505.19;2079222;28;38093;-65
2022/05/13 02:34:22;;;;;;;5.97;1.58;;;;;;;8.57;79.58;101507.81;2079163;28;45600;-64
2022/05/13 02:35:24;;;;;;;6.55;1.80;;;;;;;8.63;78.94;101501.56;2079875;28;44332;-64
2022/05/13 02:36:27;;;;;;;2.67;1.60;;;;;;;8.71;79.19;101506.88;2079546;28;20042;-65
2022/05/13 02:37:28;;;;;;;6.53;1.70;;;;;;;8.77;78.67;101497.03;2079061;28;44790;-64
2022/05/13 02:38:33;;;;;;;5.78;1.65;;;;;;;8.79;77.98;101497.91;2079399;28;42914;-64
2022/05/13 02:39:35;;;;;;;5.57;1.70;;;;;;;8.81;78.91;101503.25;2079214;28;44322;-64
2022/05/13 02:42:00;;;;;;;6.03;1.67;;;;;;;8.85;78.41;101502.31;2080583;28;20112;-64
2022/05/13 02:43:02;;;;;;;8.00;2.35;;;;;;;8.94;78.49;101496.03;2079515;28;45124;-65
2022/05/13 02:44:06;;;;;;;5.88;1.73;;;;;;;8.93;78.18;101491.59;2079593;28;44341;-64
2022/05/13 02:45:14;;;;;;;3.72;1.45;;;;;;;8.94;77.52;101491.56;2079556;28;44395;-64
2022/05/13 02:46:25;;;;;;;3.45;1.50;;;;;;;8.97;78.20;101494.22;2079757;28;44451;-64
2022/05/13 02:47:27;;;;;;;;;;;;;;;9.05;77.74;101494.16;2080148;28;45533;-64
2022/05/13 02:48:28;;;;;;;4.65;1.90;;;;;;;9.08;78.41;101504.84;2079730;28;35705;-65
2022/05/13 02:49:30;;;;;;;4.63;1.52;;;;;;;9.11;77.83;101496.78;2078937;28;45832;-64
2022/05/13 02:50:32;;;;;;;5.15;1.83;;;;;;;9.13;78.03;101492.34;2079652;28;44251;-65
2022/05/13 02:51:33;;;;;;;3.97;1.60;;;;;;;9.19;76.99;101486.06;2079285;28;44792;-64
2022/05/13 02:52:35;;;;;;;5.63;1.83;;;;;;;9.21;77.10;101483.38;2070940;28;44597;-65
2022/05/13 02:53:37;;;;;;;6.65;2.05;;;;;;;9.20;77.38;101497.63;2070955;28;45352;-65
2022/05/13 02:54:39;;;;;;;6.50;1.60;;;;;;;9.22;77.06;101487.78;2079445;28;44315;-65
2022/05/13 02:55:41;;;;;;;2.97;1.50;;;;;;;9.23;76.47;101479.78;2070040;28;44036;-65
2022/05/13 02:56:44;;;;;;;4.60;1.50;;;;;;;9.27;77.38;101488.66;2070570;28;46803;-65
2022/05/13 02:57:46;;;;;;;4.93;1.60;;;;;;;9.26;76.73;101481.50;2079025;28;44442;-65
2022/05/13 02:58:48;;;;;;;5.13;1.55;;;;;;;9.24;77.06;101478.88;2078958;28;43530;-64
2022/05/13 02:59:50;;;;;;;4.88;1.50;;;;;;;9.28;77.85;101475.28;2078303;28;45726;-64
2022/05/13 03:00:53;;;;;;;4.60;1.67;;;;;;;9.27;77.13;101476.16;2077923;28;43751;-64
2022/05/13 03:01:54;;;;;;;6.22;2.03;;;;;;;9.30;76.80;101472.59;2070172;28;45166;-64
2022/05/13 03:02:56;;;;;;;6.45;2.00;;;;;;;9.31;76.45;101477.03;2070431;28;45210;-65
2022/05/13 03:03:59;;;;;;;7.10;1.45;;;;;;;9.31;76.60;101477.03;2079047;28;45786;-65
2022/05/13 03:05:01;;;;;;;4.15;1.70;;;;;;;9.35;77.42;101476.13;2078882;28;46014;-65
2022/05/13 03:06:02;;;;;;;4.22;1.42;;;;;;;9.37;77.03;101479.66;2078969;28;40288;-64
2022/05/13 03:07:04;;;;;;;5.13;1.77;;;;;;;9.36;76.33;101475.19;2079124;28;45155;-65
2022/05/13 03:08:07;;;;;;;5.80;1.95;;;;;;;9.35;77.11;101466.31;2078720;28;43056;-65
2022/05/13 03:09:09;;;;;;;4.22;1.63;;;;;;;9.35;76.96;101470.78;2078067;28;45749;-64
2022/05/13 03:10:11;;;;;;;7.72;1.60;;;;;;;9.37;76.35;101468.97;2078323;28;44802;-64
2022/05/13 03:11:14;;;;;;;5.28;1.40;;;;;;;9.43;76.28;101473.38;2079210;28;44306;-65
2022/05/13 03:12:16;;;;;;;5.65;2.00;;;;;;;9.40;76.22;101474.25;2078902;28;38458;-64
2022/05/13 03:13:19;;;;;;;4.70;1.73;;;;;;;9.46;77.42;101476.88;2078789;28;42841;-65
2022/05/13 03:14:21;;;;;;;3.80;1.70;;;;;;;9.49;75.70;101467.94;2078402;28;43765;-64
2022/05/13 03:15:24;;;;;;;6.45;2.03;;;;;;;9.50;76.24;101477.75;2079369;28;45305;-64
2022/05/13 03:16:27;;;;;;;3.10;1.60;;;;;;;9.53;75.98;101475.06;2079750;28;20051;-63
2022/05/13 03:17:29;;;;;;;5.53;1.83;;;;;;;9.51;75.79;101467.03;2069820;28;45745;-65
2022/05/13 03:18:31;;;;;;;3.55;1.60;;;;;;;9.51;75.70;101472.38;2070391;28;46581;-64
2022/05/13 03:19:35;;;;;;;4.95;1.77;;;;;;;9.54;75.40;101469.66;2079019;28;44963;-65
2022/05/13 03:20:37;;;;;;;6.72;1.80;;;;;;;9.55;75.41;101463.44;2079245;28;44027;-64
2022/05/13 03:21:38;;;;;;;4.80;1.52;;;;;;;9.54;75.21;101461.66;2079375;28;36535;-65
2022/05/13 03:22:40;;;;;;;3.13;1.48;;;;;;;9.56;75.90;101458.97;2079345;28;44660;-65
2022/05/13 03:23:43;;;;;;;6.38;2.13;;;;;;;9.64;75.39;101450.88;2080378;28;20084;-65
2022/05/13 03:24:44;;;;;;;7.53;1.98;;;;;;;9.64;75.37;101453.56;2079702;28;33491;-65
2022/05/13 03:25:46;;;;;;;5.63;2.10;;;;;;;9.66;74.48;101451.75;2079259;28;45344;-65
2022/05/13 03:26:48;;;;;;;6.18;1.98;;;;;;;9.65;74.64;101455.31;2079147;28;43289;-65
2022/05/13 03:27:50;;;;;;;5.32;1.88;;;;;;;9.64;75.34;101453.56;2079206;28;43059;-65
2022/05/13 03:28:52;;;;;;;5.75;2.00;;;;;;;9.64;75.28;101445.53;2079350;28;32247;-65
2022/05/13 03:29:56;;;;;;;3.67;1.77;;;;;;;9.67;74.69;101454.41;2079154;28;40430;-64
2022/05/13 03:30:57;;;;;;;5.47;1.88;;;;;;;9.67;74.58;101445.47;2079207;28;46035;-64
2022/05/13 03:31:59;;;;;;;5.88;1.77;;;;;;;9.65;74.63;101448.16;2079189;28;44324;-64
2022/05/13 03:33:01;;;;;;;3.60;1.63;;;;;;;9.66;75.12;101452.63;2078098;28;43726;-65
2022/05/13 03:34:02;;;;;;;5.88;1.90;;;;;;;9.67;74.56;101445.47;2079256;28;44909;-65
2022/05/13 03:35:08;;;;;;;5.80;1.80;;;;;;;9.68;74.03;101437.44;2079148;28;43190;-64
2022/05/13 03:36:12;;;;;;;7.97;1.98;;;;;;;9.68;74.29;101436.56;2079138;28;43943;-64
2022/05/13 03:37:13;;;;;;;6.00;2.05;;;;;;;9.71;74.54;101439.22;2078796;28;45780;-64
2022/05/13 03:38:16;;;;;;;6.80;1.92;;;;;;;9.71;74.18;101431.19;2079218;28;44082;-64
2022/05/13 03:39:17;;;;;;;5.82;1.88;;;;;;;9.71;74.70;101436.53;2078918;28;46455;-63
2022/05/13 03:40:19;;;;;;;5.53;1.83;;;;;;;9.71;74.03;101439.22;2079062;28;44058;-64
2022/05/13 03:41:21;;;;;;;4.78;2.05;;;;;;;9.71;73.87;101444.56;2078511;28;45948;-64
2022/05/13 03:42:23;;;;;;;5.97;1.73;;;;;;;9.73;75.43;101434.72;2079170;28;44389;-64
2022/05/13 03:43:25;;;;;;;3.95;1.75;;;;;;;9.73;74.48;101435.59;2079122;28;35395;-64
2022/05/13 03:44:26;;;;;;;5.88;1.50;;;;;;;9.71;73.92;101431.19;2079056;28;34267;-64
2022/05/13 03:45:30;;;;;;;4.53;1.90;;;;;;;9.71;74.31;101432.06;2078810;28;42265;-64
2022/05/13 03:46:32;;;;;;;5.53;1.80;;;;;;;9.72;74.14;101435.63;2079288;28;45166;-65
2022/05/13 03:47:34;;;;;;;6.05;2.22;;;;;;;9.71;74.33;101437.41;2078829;28;44957;-63
2022/05/13 03:48:36;;;;;;;3.65;1.58;;;;;;;9.71;74.37;101436.53;2078728;28;42929;-64
2022/05/13 03:49:37;;;;;;;7.75;1.98;;;;;;;9.72;74.18;101440.97;2078722;28;43927;-64
2022/05/13 03:50:43;;;;;;;4.05;1.63;;;;;;;9.70;74.14;101435.63;2079009;28;43035;-64
2022/05/13 03:51:48;;;;;;;6.15;1.92;;;;;;;9.67;73.99;101441.03;2079778;28;20042;-64
2022/05/13 03:52:52;;;;;;;6.93;1.83;;;;;;;9.68;74.71;101440.13;2079191;28;32406;-64
2022/05/13 03:53:54;;;;;;;5.03;1.80;;;;;;;9.69;74.25;101449.00;2079429;28;43863;-63
2022/05/13 03:54:57;;;;;;;7.75;2.00;;;;;;;9.72;74.60;101443.63;2079476;28;20074;-64
2022/05/13 03:55:58;;;;;;;7.20;2.08;;;;;;;9.73;74.06;101440.06;2078778;28;44760;-64
2022/05/13 03:57:03;;;;;;;5.93;2.00;;;;;;;9.74;73.97;101439.16;2079246;28;43119;-64
2022/05/13 03:58:05;;;;;;;4.88;1.77;;;;;;;9.75;74.48;101443.63;2079057;28;44939;-63
2022/05/13 03:59:07;;;;;;;8.32;1.98;;;;;;;9.74;73.71;101449.84;2078807;28;43055;-64
2022/05/13 04:00:10;;;;;;;6.38;2.28;;;;;;;9.74;74.65;101450.75;2078385;28;45251;-64
2022/05/13 04:01:12;;;;;;;6.10;2.20;;;;;;;9.76;74.91;101448.03;2079230;28;34298;-64
2022/05/13 04:02:16;;;;;;;4.57;1.70;;;;;;;9.75;74.06;101454.31;2078299;28;45567;-64
2022/05/13 04:03:21;;;;;;;7.00;2.35;;;;;;;9.77;74.39;101457.84;2078861;28;45479;-63
2022/05/13 04:04:23;;;;;;;4.07;1.58;;;;;;;9.75;74.35;101454.31;2079086;28;44738;-64
2022/05/13 04:09:27;;;;;;;6.35;1.52;;;;;;;9.80;73.85;101449.81;2078846;28;45133;-63
2022/05/13 04:10:28;;;;;;;4.03;1.30;;;;;;;9.82;73.89;101449.78;2078950;28;44328;-64
2022/05/13 04:11:36;;;;;;;5.93;1.77;;;;;;;9.81;73.64;101448.88;2078352;28;44511;-63
2022/05/13 04:16:54;;;;;;;5.63;1.80;;;;;;;9.85;73.65;101458.66;2063995;28;20054;-66
2022/05/13 04:17:57;;;;;;;5.65;1.73;;;;;;;9.87;74.14;101463.97;2071674;28;20849;-64
2022/05/13 04:18:58;;;;;;;6.18;1.70;;;;;;;9.86;73.98;101465.75;2071084;28;20899;-64
2022/05/13 04:20:01;;;;;;;5.53;1.70;;;;;;;9.86;73.70;101459.53;2071018;28;24782;-63
2022/05/13 04:21:12;;;;;;;7.82;1.67;;;;;;;9.86;73.62;101457.75;2071522;28;20080;-63
2022/05/13 04:22:14;;;;;;;5.97;1.75;;;;;;;9.87;73.66;101462.19;2071569;28;44700;-63
2022/05/13 04:23:18;;;;;;;7.22;1.98;;;;;;;9.87;74.40;101462.19;2062498;28;44301;-65
2022/05/13 04:24:20;;;;;;;4.03;1.85;;;;;;;9.89;73.88;101456.84;2055412;28;46197;-65
2022/05/13 04:25:23;;;;;;;3.95;1.83;;;;;;;9.89;74.02;101451.50;2063131;28;43492;-64
2022/05/13 04:26:25;;;;;;;6.32;2.15;;;;;;;9.89;74.10;101455.03;2063215;28;45619;-65
2022/05/13 04:27:27;;;;;;;6.90;1.92;;;;;;;9.90;74.43;101454.13;2064499;28;20043;-65
2022/05/13 04:28:32;;;;;;;3.88;1.90;;;;;;;9.91;73.67;101452.34;2063204;28;40159;-66
2022/05/13 04:29:36;;;;;;;5.15;1.65;;;;;;;9.93;73.82;101453.22;2055460;28;46753;-66
2022/05/13 04:30:37;;;;;;;6.10;1.33;;;;;;;9.93;73.65;101451.41;2064068;28;41949;-66
2022/05/13 04:31:43;;;;;;;10.40;2.13;;;;;;;9.92;73.16;101444.31;2071963;28;45292;-65
2022/05/13 04:32:45;;;;;;;4.45;1.90;;;;;;;9.94;73.61;101455.88;2071686;28;46243;-66
2022/05/13 04:33:50;;;;;;;3.83;1.60;;;;;;;9.97;74.19;101448.72;2072211;28;31765;-65
2022/05/13 04:34:52;;;;;;;4.03;1.52;;;;;;;9.97;73.76;101449.59;2072105;28;46183;-66
2022/05/13 04:35:53;;;;;;;4.95;1.80;;;;;;;9.99;73.57;101454.91;2063394;28;43604;-65
2022/05/13 04:36:55;;;;;;;5.18;1.85;;;;;;;10.01;73.40;101453.09;2063094;28;43885;-65
2022/05/13 04:37:57;;;;;;;6.95;1.98;;;;;;;10.02;74.17;101449.53;2071844;28;44454;-65
2022/05/13 04:38:59;;;;;;;5.43;1.67;;;;;;;10.02;74.07;101453.09;2072477;28;34055;-65
2022/05/13 04:40:01;;;;;;;4.20;1.92;;;;;;;10.04;73.29;101466.47;2071764;28;47275;-65
2022/05/13 04:43:45;;;;;;;;;;;;;;;10.04;73.34;101472.69;2071923;28;46566;-65
2022/05/13 04:44:47;;;;;;;4.80;1.58;;;;;;;10.06;73.39;101470.00;2071930;28;42696;-66
2022/05/13 04:45:50;;;;;;;4.55;1.50;;;;;;;10.05;73.98;101478.91;2074988;28;20839;-65
2022/05/13 04:46:51;;;;;;;7.20;1.90;;;;;;;10.05;73.85;101478.91;2079862;28;20885;-66
2022/05/13 04:49:16;;;;;;;6.35;1.92;;;;;;;10.05;73.98;101481.59;2080345;28;24225;-65
2022/05/13 04:50:19;;;;;;;8.38;1.75;;;;;;;10.04;73.78;101483.38;2080078;28;44304;-63
2022/05/13 04:51:21;;;;;;;6.88;1.80;;;;;;;10.04;74.00;101499.44;2079862;28;45264;-66
2022/05/13 04:52:24;;;;;;;5.22;1.65;;;;;;;10.04;74.23;101498.56;2079613;28;44437;-66
2022/05/13 04:53:30;;;;;;;6.70;1.80;;;;;;;10.05;73.26;101490.53;2078844;28;43904;-62
2022/05/13 04:54:32;;;;;;;6.63;1.88;;;;;;;10.06;73.68;101497.63;2072175;28;46171;-63
2022/05/13 04:55:34;;;;;;;6.32;2.13;;;;;;;10.07;73.89;101495.84;2079458;28;44683;-65
2022/05/13 04:56:36;;;;;;;4.38;2.15;;;;;;;10.07;73.97;101494.06;2079831;28;44013;-67
2022/05/13 04:57:38;;;;;;;8.95;2.05;;;;;;;10.06;73.69;101497.63;2079796;28;44839;-65
2022/05/13 04:58:41;;;;;;;6.28;2.13;;;;;;;10.08;73.59;101502.97;2080107;28;43862;-65
2022/05/13 04:59:43;;;;;;;7.10;1.90;;;;;;;10.09;74.12;101499.41;2079949;28;45005;-65
2022/05/13 05:00:47;;;;;;;5.03;1.58;;;;;;;10.09;74.29;101502.94;2081286;28;20882;-64
2022/05/13 05:01:49;;;;;;;4.20;1.77;;;;;;;10.10;74.15;101501.16;2080161;28;44332;-64
2022/05/13 05:02:51;;;;;;;9.18;2.00;;;;;;;10.08;74.64;101506.50;2081470;28;45003;-64
2022/05/13 05:03:54;;;;;;;5.30;2.03;;;;;;;10.10;74.40;101525.22;2080767;28;39523;-65
2022/05/13 05:04:57;;;;;;;9.98;2.20;;;;;;;10.12;73.79;101515.38;2080241;28;22870;-64
2022/05/13 05:05:59;;;;;;;8.48;2.10;;;;;;;10.13;74.06;101509.16;2080584;28;20876;-65
2022/05/13 05:07:01;;;;;;;8.25;1.75;;;;;;;10.14;73.39;101505.59;2078269;28;45559;-63
2022/05/13 05:08:06;;;;;;;8.23;2.00;;;;;;;10.15;73.45;101507.34;2071553;28;46427;-64
2022/05/13 05:09:08;;;;;;;4.32;1.42;;;;;;;10.13;73.77;101509.16;2079443;28;42928;-65
2022/05/13 05:10:13;;;;;;;6.72;1.70;;;;;;;10.14;73.40;101516.28;2079230;28;47127;-65
2022/05/13 05:11:17;;;;;;;9.90;2.17;;;;;;;10.14;73.57;101505.59;2079731;28;45780;-64
2022/05/13 05:12:19;;;;;;;6.80;2.10;;;;;;;10.16;73.83;101508.22;2070923;28;44868;-64
2022/05/13 05:13:27;;;;;;;8.55;2.17;;;;;;;10.16;73.99;101510.88;2071453;28;33727;-65